sensor_id;sensor_type;location;lat;lon;timestamp;P1;durP1;ratioP1;P2;durP2;ratioP2
33022;SDS011;19390;51.460;5.710;2023-06-04T00:00:41;3.28;;;2.33;;
33022;SDS011;19390;51.460;5.710;2023-06-04T00:03:07;6.03;;;2.38;;
33022;SDS011;19390;51.460;5.710;2023-06-04T00:05:33;3.35;;;2.40;;
33022;SDS011;19390;51.460;5.710;2023-06-04T00:07:58;3.03;;;2.33;;
33022;SDS011;19390;51.460;5.710;2023-06-04T00:10:24;4.95;;;2.30;;
33022;SDS011;19390;51.460;5.710;2023-06-04T00:12:49;3.25;;;1.98;;
33022;SDS011;19390;51.460;5.710;2023-06-04T00:15:15;3.40;;;2.33;;
33022;SDS011;19390;51.460;5.710;2023-06-04T00:17:44;5.00;;;2.65;;
33022;SDS011;19390;51.460;5.710;2023-06-04T00:20:09;4.90;;;2.15;;
33022;SDS011;19390;51.460;5.710;2023-06-04T00:22:36;5.55;;;2.30;;
33022;SDS011;19390;51.460;5.710;2023-06-04T00:25:01;6.20;;;2.20;;
33022;SDS011;19390;51.460;5.710;2023-06-04T00:27:28;3.30;;;2.08;;
33022;SDS011;19390;51.460;5.710;2023-06-04T00:29:53;3.88;;;2.30;;
33022;SDS011;19390;51.460;5.710;2023-06-04T00:32:19;4.63;;;1.90;;
33022;SDS011;19390;51.460;5.710;2023-06-04T00:34:54;3.15;;;2.08;;
33022;SDS011;19390;51.460;5.710;2023-06-04T00:37:22;2.85;;;1.80;;
33022;SDS011;19390;51.460;5.710;2023-06-04T00:39:48;4.32;;;2.10;;
33022;SDS011;19390;51.460;5.710;2023-06-04T00:42:14;2.70;;;1.83;;
33022;SDS011;19390;51.460;5.710;2023-06-04T00:44:40;3.85;;;1.90;;
33022;SDS011;19390;51.460;5.710;2023-06-04T00:47:10;3.28;;;2.20;;
33022;SDS011;19390;51.460;5.710;2023-06-04T00:49:43;4.35;;;1.92;;
33022;SDS011;19390;51.460;5.710;2023-06-04T00:52:10;7.07;;;2.05;;
33022;SDS011;19390;51.460;5.710;2023-06-04T00:54:37;4.18;;;2.40;;
33022;SDS011;19390;51.460;5.710;2023-06-04T00:57:03;6.00;;;2.30;;
33022;SDS011;19390;51.460;5.710;2023-06-04T00:59:31;4.70;;;2.30;;
33022;SDS011;19390;51.460;5.710;2023-06-04T01:02:02;4.82;;;2.10;;
33022;SDS011;19390;51.460;5.710;2023-06-04T01:04:33;4.65;;;1.70;;
33022;SDS011;19390;51.460;5.710;2023-06-04T01:07:15;8.18;;;2.20;;
33022;SDS011;19390;51.460;5.710;2023-06-04T01:09:43;2.60;;;1.80;;
33022;SDS011;19390;51.460;5.710;2023-06-04T01:12:10;6.03;;;2.17;;
33022;SDS011;19390;51.460;5.710;2023-06-04T01:14:36;3.80;;;1.90;;
33022;SDS011;19390;51.460;5.710;2023-06-04T01:17:36;3.05;;;1.70;;
33022;SDS011;19390;51.460;5.710;2023-06-04T01:28:04;7.72;;;2.00;;
33022;SDS011;19390;51.460;5.710;2023-06-04T01:30:33;4.15;;;1.90;;
33022;SDS011;19390;51.460;5.710;2023-06-04T01:33:01;5.85;;;1.80;;
33022;SDS011;19390;51.460;5.710;2023-06-04T01:35:28;3.20;;;2.08;;
33022;SDS011;19390;51.460;5.710;2023-06-04T01:37:56;8.05;;;2.15;;
33022;SDS011;19390;51.460;5.710;2023-06-04T01:40:22;5.03;;;1.90;;
33022;SDS011;19390;51.460;5.710;2023-06-04T01:42:48;3.40;;;2.40;;
33022;SDS011;19390;51.460;5.710;2023-06-04T01:45:13;3.70;;;2.20;;
33022;SDS011;19390;51.460;5.710;2023-06-04T01:47:39;5.78;;;2.35;;
33022;SDS011;19390;51.460;5.710;2023-06-04T01:50:05;2.85;;;1.80;;
33022;SDS011;19390;51.460;5.710;2023-06-04T01:52:34;7.70;;;2.58;;
33022;SDS011;19390;51.460;5.710;2023-06-04T01:55:04;3.65;;;2.10;;
33022;SDS011;19390;51.460;5.710;2023-06-04T01:57:30;5.07;;;2.05;;
33022;SDS011;19390;51.460;5.710;2023-06-04T01:59:55;2.65;;;1.88;;
33022;SDS011;19390;51.460;5.710;2023-06-04T02:02:21;3.67;;;2.33;;
33022;SDS011;19390;51.460;5.710;2023-06-04T02:04:47;2.90;;;2.20;;
33022;SDS011;19390;51.460;5.710;2023-06-04T02:07:12;6.25;;;2.25;;
33022;SDS011;19390;51.460;5.710;2023-06-04T02:09:42;3.00;;;2.20;;
33022;SDS011;19390;51.460;5.710;2023-06-04T02:12:08;3.05;;;1.98;;
33022;SDS011;19390;51.460;5.710;2023-06-04T02:14:34;4.85;;;2.28;;
33022;SDS011;19390;51.460;5.710;2023-06-04T02:17:00;4.20;;;2.17;;
33022;SDS011;19390;51.460;5.710;2023-06-04T02:19:26;6.68;;;2.42;;
33022;SDS011;19390;51.460;5.710;2023-06-04T02:21:55;3.72;;;2.03;;
33022;SDS011;19390;51.460;5.710;2023-06-04T02:24:21;4.35;;;2.20;;
33022;SDS011;19390;51.460;5.710;2023-06-04T02:26:47;2.88;;;2.35;;
33022;SDS011;19390;51.460;5.710;2023-06-04T02:29:12;5.50;;;2.20;;
33022;SDS011;19390;51.460;5.710;2023-06-04T02:31:38;7.35;;;2.45;;
33022;SDS011;19390;51.460;5.710;2023-06-04T02:34:04;4.13;;;2.20;;
33022;SDS011;19390;51.460;5.710;2023-06-04T02:36:30;4.90;;;2.20;;
33022;SDS011;19390;51.460;5.710;2023-06-04T02:38:55;4.07;;;2.20;;
33022;SDS011;19390;51.460;5.710;2023-06-04T02:41:21;7.35;;;2.28;;
33022;SDS011;19390;51.460;5.710;2023-06-04T02:43:48;3.97;;;2.10;;
33022;SDS011;19390;51.460;5.710;2023-06-04T02:46:14;3.67;;;2.33;;
33022;SDS011;19390;51.460;5.710;2023-06-04T02:48:39;3.45;;;2.30;;
33022;SDS011;19390;51.460;5.710;2023-06-04T02:51:05;5.10;;;2.60;;
33022;SDS011;19390;51.460;5.710;2023-06-04T02:53:31;4.82;;;2.20;;
33022;SDS011;19390;51.460;5.710;2023-06-04T02:55:56;5.22;;;2.40;;
33022;SDS011;19390;51.460;5.710;2023-06-04T02:58:25;6.25;;;2.42;;
33022;SDS011;19390;51.460;5.710;2023-06-04T03:00:52;5.18;;;2.30;;
33022;SDS011;19390;51.460;5.710;2023-06-04T03:03:17;4.63;;;2.67;;
33022;SDS011;19390;51.460;5.710;2023-06-04T03:05:43;2.42;;;1.92;;
33022;SDS011;19390;51.460;5.710;2023-06-04T03:08:09;7.38;;;2.40;;
33022;SDS011;19390;51.460;5.710;2023-06-04T03:10:34;4.57;;;2.50;;
33022;SDS011;19390;51.460;5.710;2023-06-04T03:13:00;2.42;;;2.00;;
33022;SDS011;19390;51.460;5.710;2023-06-04T03:15:26;3.50;;;2.33;;
33022;SDS011;19390;51.460;5.710;2023-06-04T03:17:51;5.20;;;2.17;;
33022;SDS011;19390;51.460;5.710;2023-06-04T03:20:17;4.85;;;2.15;;
33022;SDS011;19390;51.460;5.710;2023-06-04T03:22:43;5.57;;;2.22;;
33022;SDS011;19390;51.460;5.710;2023-06-04T03:25:08;4.43;;;2.20;;
33022;SDS011;19390;51.460;5.710;2023-06-04T03:27:34;4.05;;;2.20;;
33022;SDS011;19390;51.460;5.710;2023-06-04T03:30:00;4.57;;;2.63;;
33022;SDS011;19390;51.460;5.710;2023-06-04T03:32:27;3.80;;;2.60;;
33022;SDS011;19390;51.460;5.710;2023-06-04T03:34:52;3.22;;;2.40;;
33022;SDS011;19390;51.460;5.710;2023-06-04T03:37:18;5.47;;;2.60;;
33022;SDS011;19390;51.460;5.710;2023-06-04T03:39:43;5.82;;;2.05;;
33022;SDS011;19390;51.460;5.710;2023-06-04T03:42:09;4.93;;;2.80;;
33022;SDS011;19390;51.460;5.710;2023-06-04T03:44:35;3.35;;;2.33;;
33022;SDS011;19390;51.460;5.710;2023-06-04T03:47:00;3.45;;;2.22;;
33022;SDS011;19390;51.460;5.710;2023-06-04T03:49:26;4.38;;;2.70;;
33022;SDS011;19390;51.460;5.710;2023-06-04T03:51:52;7.78;;;2.30;;
33022;SDS011;19390;51.460;5.710;2023-06-04T03:54:17;3.90;;;2.60;;
33022;SDS011;19390;51.460;5.710;2023-06-04T03:56:44;4.93;;;2.05;;
33022;SDS011;19390;51.460;5.710;2023-06-04T03:59:10;4.65;;;2.95;;
33022;SDS011;19390;51.460;5.710;2023-06-04T04:01:36;4.80;;;2.50;;
33022;SDS011;19390;51.460;5.710;2023-06-04T04:04:01;8.25;;;2.95;;
33022;SDS011;19390;51.460;5.710;2023-06-04T04:06:27;11.25;;;3.35;;
33022;SDS011;19390;51.460;5.710;2023-06-04T04:08:53;7.75;;;2.67;;
33022;SDS011;19390;51.460;5.710;2023-06-04T04:11:18;3.80;;;2.58;;
33022;SDS011;19390;51.460;5.710;2023-06-04T04:13:44;3.47;;;2.53;;
33022;SDS011;19390;51.460;5.710;2023-06-04T04:16:11;4.60;;;2.33;;
33022;SDS011;19390;51.460;5.710;2023-06-04T04:18:37;5.10;;;2.25;;
33022;SDS011;19390;51.460;5.710;2023-06-04T04:21:03;6.30;;;2.65;;
33022;SDS011;19390;51.460;5.710;2023-06-04T04:23:30;5.07;;;2.63;;
33022;SDS011;19390;51.460;5.710;2023-06-04T04:25:57;4.18;;;2.00;;
33022;SDS011;19390;51.460;5.710;2023-06-04T04:28:24;7.38;;;2.42;;
33022;SDS011;19390;51.460;5.710;2023-06-04T04:30:53;3.53;;;2.22;;
33022;SDS011;19390;51.460;5.710;2023-06-04T04:33:19;5.63;;;2.90;;
33022;SDS011;19390;51.460;5.710;2023-06-04T04:35:45;4.68;;;2.80;;
33022;SDS011;19390;51.460;5.710;2023-06-04T04:38:10;7.38;;;2.40;;
33022;SDS011;19390;51.460;5.710;2023-06-04T04:40:36;4.05;;;2.53;;
33022;SDS011;19390;51.460;5.710;2023-06-04T04:43:02;3.35;;;3.03;;
33022;SDS011;19390;51.460;5.710;2023-06-04T04:45:28;5.47;;;2.65;;
33022;SDS011;19390;51.460;5.710;2023-06-04T04:47:54;3.78;;;2.85;;
33022;SDS011;19390;51.460;5.710;2023-06-04T04:50:20;5.47;;;2.03;;
33022;SDS011;19390;51.460;5.710;2023-06-04T04:52:45;5.28;;;2.65;;
33022;SDS011;19390;51.460;5.710;2023-06-04T04:55:11;5.00;;;2.55;;
33022;SDS011;19390;51.460;5.710;2023-06-04T04:57:38;5.20;;;2.50;;
33022;SDS011;19390;51.460;5.710;2023-06-04T05:00:03;9.25;;;3.00;;
33022;SDS011;19390;51.460;5.710;2023-06-04T05:02:31;5.35;;;2.67;;
33022;SDS011;19390;51.460;5.710;2023-06-04T05:04:56;6.93;;;2.65;;
33022;SDS011;19390;51.460;5.710;2023-06-04T05:07:22;7.40;;;2.47;;
33022;SDS011;19390;51.460;5.710;2023-06-04T05:09:49;2.92;;;2.05;;
33022;SDS011;19390;51.460;5.710;2023-06-04T05:12:15;5.78;;;2.85;;
33022;SDS011;19390;51.460;5.710;2023-06-04T05:14:41;6.78;;;2.10;;
33022;SDS011;19390;51.460;5.710;2023-06-04T05:17:07;3.85;;;2.67;;
33022;SDS011;19390;51.460;5.710;2023-06-04T05:19:36;5.88;;;1.90;;
33022;SDS011;19390;51.460;5.710;2023-06-04T05:22:02;5.97;;;2.45;;
33022;SDS011;19390;51.460;5.710;2023-06-04T05:24:28;4.30;;;2.38;;
33022;SDS011;19390;51.460;5.710;2023-06-04T05:26:54;3.92;;;2.30;;
33022;SDS011;19390;51.460;5.710;2023-06-04T05:29:21;3.90;;;2.30;;
33022;SDS011;19390;51.460;5.710;2023-06-04T05:31:47;4.35;;;2.10;;
33022;SDS011;19390;51.460;5.710;2023-06-04T05:34:13;2.85;;;2.30;;
33022;SDS011;19390;51.460;5.710;2023-06-04T05:36:41;5.78;;;2.13;;
33022;SDS011;19390;51.460;5.710;2023-06-04T05:39:07;4.25;;;2.30;;
33022;SDS011;19390;51.460;5.710;2023-06-04T05:41:34;6.95;;;2.30;;
33022;SDS011;19390;51.460;5.710;2023-06-04T05:44:00;4.50;;;2.30;;
33022;SDS011;19390;51.460;5.710;2023-06-04T05:46:26;6.07;;;2.05;;
33022;SDS011;19390;51.460;5.710;2023-06-04T05:48:52;4.90;;;2.60;;
33022;SDS011;19390;51.460;5.710;2023-06-04T05:51:19;4.80;;;2.17;;
33022;SDS011;19390;51.460;5.710;2023-06-04T05:53:45;3.28;;;2.03;;
33022;SDS011;19390;51.460;5.710;2023-06-04T05:56:11;4.35;;;2.17;;
33022;SDS011;19390;51.460;5.710;2023-06-04T05:58:36;4.10;;;1.90;;
33022;SDS011;19390;51.460;5.710;2023-06-04T06:01:02;3.55;;;2.08;;
33022;SDS011;19390;51.460;5.710;2023-06-04T06:03:28;4.43;;;2.00;;
33022;SDS011;19390;51.460;5.710;2023-06-04T06:05:54;4.55;;;1.85;;
33022;SDS011;19390;51.460;5.710;2023-06-04T06:08:20;3.25;;;2.20;;
33022;SDS011;19390;51.460;5.710;2023-06-04T06:10:46;2.60;;;2.00;;
33022;SDS011;19390;51.460;5.710;2023-06-04T06:13:12;5.53;;;2.08;;
33022;SDS011;19390;51.460;5.710;2023-06-04T06:15:37;3.35;;;1.92;;
33022;SDS011;19390;51.460;5.710;2023-06-04T06:18:03;4.00;;;2.20;;
33022;SDS011;19390;51.460;5.710;2023-06-04T06:20:29;4.90;;;2.30;;
33022;SDS011;19390;51.460;5.710;2023-06-04T06:22:55;4.13;;;2.28;;
33022;SDS011;19390;51.460;5.710;2023-06-04T06:25:20;3.53;;;1.77;;
33022;SDS011;19390;51.460;5.710;2023-06-04T06:27:46;5.43;;;2.17;;
33022;SDS011;19390;51.460;5.710;2023-06-04T06:30:13;3.15;;;2.00;;
33022;SDS011;19390;51.460;5.710;2023-06-04T06:32:39;3.70;;;2.00;;
33022;SDS011;19390;51.460;5.710;2023-06-04T06:35:05;3.40;;;2.08;;
33022;SDS011;19390;51.460;5.710;2023-06-04T06:37:31;5.35;;;2.35;;
33022;SDS011;19390;51.460;5.710;2023-06-04T06:39:57;2.95;;;2.13;;
33022;SDS011;19390;51.460;5.710;2023-06-04T06:42:22;2.63;;;2.05;;
33022;SDS011;19390;51.460;5.710;2023-06-04T06:44:48;4.43;;;2.35;;
33022;SDS011;19390;51.460;5.710;2023-06-04T06:47:14;3.35;;;2.15;;
33022;SDS011;19390;51.460;5.710;2023-06-04T06:49:42;2.58;;;2.10;;
33022;SDS011;19390;51.460;5.710;2023-06-04T06:52:08;4.82;;;1.95;;
33022;SDS011;19390;51.460;5.710;2023-06-04T06:54:35;3.25;;;1.67;;
33022;SDS011;19390;51.460;5.710;2023-06-04T06:57:00;5.68;;;2.10;;
33022;SDS011;19390;51.460;5.710;2023-06-04T06:59:27;2.28;;;1.80;;
33022;SDS011;19390;51.460;5.710;2023-06-04T07:01:53;4.95;;;1.67;;
33022;SDS011;19390;51.460;5.710;2023-06-04T07:04:19;3.92;;;1.90;;
33022;SDS011;19390;51.460;5.710;2023-06-04T07:06:45;4.47;;;1.77;;
33022;SDS011;19390;51.460;5.710;2023-06-04T07:09:11;2.90;;;1.83;;
33022;SDS011;19390;51.460;5.710;2023-06-04T07:11:37;3.10;;;2.10;;
33022;SDS011;19390;51.460;5.710;2023-06-04T07:14:03;5.10;;;2.10;;
33022;SDS011;19390;51.460;5.710;2023-06-04T07:16:28;3.15;;;1.90;;
33022;SDS011;19390;51.460;5.710;2023-06-04T07:18:54;2.38;;;1.70;;
33022;SDS011;19390;51.460;5.710;2023-06-04T07:21:20;3.80;;;2.00;;
33022;SDS011;19390;51.460;5.710;2023-06-04T07:23:48;1.92;;;1.50;;
33022;SDS011;19390;51.460;5.710;2023-06-04T07:26:16;5.50;;;1.45;;
33022;SDS011;19390;51.460;5.710;2023-06-04T07:28:42;3.17;;;1.70;;
33022;SDS011;19390;51.460;5.710;2023-06-04T07:31:08;2.83;;;1.88;;
33022;SDS011;19390;51.460;5.710;2023-06-04T07:33:34;3.97;;;1.73;;
33022;SDS011;19390;51.460;5.710;2023-06-04T07:36:08;4.28;;;1.55;;
33022;SDS011;19390;51.460;5.710;2023-06-04T07:38:40;3.23;;;1.70;;
33022;SDS011;19390;51.460;5.710;2023-06-04T07:41:05;4.45;;;1.90;;
33022;SDS011;19390;51.460;5.710;2023-06-04T07:43:32;2.50;;;1.95;;
33022;SDS011;19390;51.460;5.710;2023-06-04T07:46:00;2.90;;;1.40;;
33022;SDS011;19390;51.460;5.710;2023-06-04T07:48:26;4.10;;;1.52;;
33022;SDS011;19390;51.460;5.710;2023-06-04T07:50:56;4.30;;;1.63;;
33022;SDS011;19390;51.460;5.710;2023-06-04T07:53:22;2.85;;;1.50;;
33022;SDS011;19390;51.460;5.710;2023-06-04T07:55:48;2.42;;;1.45;;
33022;SDS011;19390;51.460;5.710;2023-06-04T07:58:13;3.65;;;1.50;;
33022;SDS011;19390;51.460;5.710;2023-06-04T08:00:39;3.65;;;1.63;;
33022;SDS011;19390;51.460;5.710;2023-06-04T08:03:05;4.55;;;1.52;;
33022;SDS011;19390;51.460;5.710;2023-06-04T08:05:31;2.58;;;1.38;;
33022;SDS011;19390;51.460;5.710;2023-06-04T08:07:56;5.50;;;1.50;;
33022;SDS011;19390;51.460;5.710;2023-06-04T08:10:22;3.03;;;1.30;;
33022;SDS011;19390;51.460;5.710;2023-06-04T08:12:48;5.95;;;1.60;;
33022;SDS011;19390;51.460;5.710;2023-06-04T08:15:13;3.92;;;1.38;;
33022;SDS011;19390;51.460;5.710;2023-06-04T08:17:39;4.57;;;1.48;;
33022;SDS011;19390;51.460;5.710;2023-06-04T08:20:05;4.55;;;1.20;;
33022;SDS011;19390;51.460;5.710;2023-06-04T08:22:31;3.33;;;1.17;;
33022;SDS011;19390;51.460;5.710;2023-06-04T08:24:57;2.03;;;1.00;;
33022;SDS011;19390;51.460;5.710;2023-06-04T08:27:22;4.88;;;1.10;;
33022;SDS011;19390;51.460;5.710;2023-06-04T08:29:48;2.60;;;1.23;;
33022;SDS011;19390;51.460;5.710;2023-06-04T08:32:14;5.35;;;1.25;;
33022;SDS011;19390;51.460;5.710;2023-06-04T08:34:39;1.83;;;1.05;;
33022;SDS011;19390;51.460;5.710;2023-06-04T08:37:05;5.80;;;1.30;;
33022;SDS011;19390;51.460;5.710;2023-06-04T08:39:31;3.78;;;1.35;;
33022;SDS011;19390;51.460;5.710;2023-06-04T08:42:01;1.65;;;1.20;;
33022;SDS011;19390;51.460;5.710;2023-06-04T08:44:32;2.00;;;0.95;;
33022;SDS011;19390;51.460;5.710;2023-06-04T08:47:02;2.20;;;1.20;;
33022;SDS011;19390;51.460;5.710;2023-06-04T08:49:31;1.20;;;0.90;;
33022;SDS011;19390;51.460;5.710;2023-06-04T08:52:01;2.03;;;0.90;;
33022;SDS011;19390;51.460;5.710;2023-06-04T08:54:27;3.47;;;0.80;;
33022;SDS011;19390;51.460;5.710;2023-06-04T08:56:56;2.97;;;1.10;;
33022;SDS011;19390;51.460;5.710;2023-06-04T08:59:22;1.92;;;1.02;;
33022;SDS011;19390;51.460;5.710;2023-06-04T09:01:48;1.30;;;0.85;;
33022;SDS011;19390;51.460;5.710;2023-06-04T09:04:18;3.15;;;0.90;;
33022;SDS011;19390;51.460;5.710;2023-06-04T09:06:43;2.97;;;0.75;;
33022;SDS011;19390;51.460;5.710;2023-06-04T09:09:10;2.03;;;0.82;;
33022;SDS011;19390;51.460;5.710;2023-06-04T09:11:57;1.88;;;0.93;;
33022;SDS011;19390;51.460;5.710;2023-06-04T09:14:26;1.45;;;1.00;;
33022;SDS011;19390;51.460;5.710;2023-06-04T09:16:52;3.47;;;1.33;;
33022;SDS011;19390;51.460;5.710;2023-06-04T09:19:20;1.20;;;0.70;;
33022;SDS011;19390;51.460;5.710;2023-06-04T09:24:13;1.20;;;0.70;;
33022;SDS011;19390;51.460;5.710;2023-06-04T09:26:39;0.80;;;0.80;;
33022;SDS011;19390;51.460;5.710;2023-06-04T09:29:05;2.47;;;1.00;;
33022;SDS011;19390;51.460;5.710;2023-06-04T09:31:31;1.55;;;0.80;;
33022;SDS011;19390;51.460;5.710;2023-06-04T09:34:02;0.60;;;0.50;;
33022;SDS011;19390;51.460;5.710;2023-06-04T09:36:31;1.67;;;0.70;;
33022;SDS011;19390;51.460;5.710;2023-06-04T09:39:00;1.42;;;0.70;;
33022;SDS011;19390;51.460;5.710;2023-06-04T09:41:25;0.90;;;0.70;;
33022;SDS011;19390;51.460;5.710;2023-06-04T09:44:01;1.30;;;0.75;;
33022;SDS011;19390;51.460;5.710;2023-06-04T09:46:28;0.75;;;0.50;;
33022;SDS011;19390;51.460;5.710;2023-06-04T09:49:04;1.95;;;0.73;;
33022;SDS011;19390;51.460;5.710;2023-06-04T09:51:30;2.42;;;0.73;;
33022;SDS011;19390;51.460;5.710;2023-06-04T09:53:57;1.73;;;0.88;;
33022;SDS011;19390;51.460;5.710;2023-06-04T09:56:24;2.35;;;0.60;;
33022;SDS011;19390;51.460;5.710;2023-06-04T09:58:53;4.18;;;0.82;;
33022;SDS011;19390;51.460;5.710;2023-06-04T10:01:20;2.88;;;0.70;;
33022;SDS011;19390;51.460;5.710;2023-06-04T10:03:51;0.95;;;0.45;;
33022;SDS011;19390;51.460;5.710;2023-06-04T10:06:20;1.75;;;0.60;;
33022;SDS011;19390;51.460;5.710;2023-06-04T10:08:46;4.22;;;0.63;;
33022;SDS011;19390;51.460;5.710;2023-06-04T10:11:15;1.25;;;0.63;;
33022;SDS011;19390;51.460;5.710;2023-06-04T10:13:48;2.22;;;0.65;;
33022;SDS011;19390;51.460;5.710;2023-06-04T10:16:20;2.95;;;0.50;;
33022;SDS011;19390;51.460;5.710;2023-06-04T10:18:48;1.13;;;0.70;;
33022;SDS011;19390;51.460;5.710;2023-06-04T10:21:15;2.42;;;0.50;;
33022;SDS011;19390;51.460;5.710;2023-06-04T10:23:43;2.42;;;0.68;;
33022;SDS011;19390;51.460;5.710;2023-06-04T10:26:12;2.03;;;0.82;;
33022;SDS011;19390;51.460;5.710;2023-06-04T10:28:42;3.20;;;0.80;;
33022;SDS011;19390;51.460;5.710;2023-06-04T10:31:08;1.55;;;0.82;;
33022;SDS011;19390;51.460;5.710;2023-06-04T10:33:35;1.83;;;0.60;;
33022;SDS011;19390;51.460;5.710;2023-06-04T10:36:10;1.33;;;0.77;;
33022;SDS011;19390;51.460;5.710;2023-06-04T10:38:48;1.27;;;0.70;;
33022;SDS011;19390;51.460;5.710;2023-06-04T10:41:15;0.77;;;0.65;;
33022;SDS011;19390;51.460;5.710;2023-06-04T10:43:45;2.17;;;0.70;;
33022;SDS011;19390;51.460;5.710;2023-06-04T10:46:15;1.10;;;0.60;;
33022;SDS011;19390;51.460;5.710;2023-06-04T10:48:47;2.05;;;0.88;;
33022;SDS011;19390;51.460;5.710;2023-06-04T10:51:28;3.45;;;0.70;;
33022;SDS011;19390;51.460;5.710;2023-06-04T10:53:58;3.58;;;0.80;;
33022;SDS011;19390;51.460;5.710;2023-06-04T10:56:25;1.38;;;0.70;;
33022;SDS011;19390;51.460;5.710;2023-06-04T10:58:57;1.15;;;0.68;;
33022;SDS011;19390;51.460;5.710;2023-06-04T11:01:25;3.90;;;0.68;;
33022;SDS011;19390;51.460;5.710;2023-06-04T11:06:21;2.17;;;0.80;;
33022;SDS011;19390;51.460;5.710;2023-06-04T11:09:00;2.05;;;0.60;;
33022;SDS011;19390;51.460;5.710;2023-06-04T11:11:27;1.10;;;0.60;;
33022;SDS011;19390;51.460;5.710;2023-06-04T11:13:53;0.73;;;0.70;;
33022;SDS011;19390;51.460;5.710;2023-06-04T11:16:19;1.35;;;0.80;;
33022;SDS011;19390;51.460;5.710;2023-06-04T11:18:55;3.60;;;0.80;;
33022;SDS011;19390;51.460;5.710;2023-06-04T11:21:22;1.13;;;0.88;;
33022;SDS011;19390;51.460;5.710;2023-06-04T11:23:48;1.95;;;0.60;;
33022;SDS011;19390;51.460;5.710;2023-06-04T11:26:19;2.38;;;0.90;;
33022;SDS011;19390;51.460;5.710;2023-06-04T11:28:48;3.30;;;0.70;;
33022;SDS011;19390;51.460;5.710;2023-06-04T11:31:14;3.72;;;0.82;;
33022;SDS011;19390;51.460;5.710;2023-06-04T11:33:46;0.95;;;0.75;;
33022;SDS011;19390;51.460;5.710;2023-06-04T11:36:22;4.80;;;0.95;;
33022;SDS011;19390;51.460;5.710;2023-06-04T11:41:27;1.98;;;0.73;;
33022;SDS011;19390;51.460;5.710;2023-06-04T11:43:55;3.58;;;0.75;;
33022;SDS011;19390;51.460;5.710;2023-06-04T11:46:22;2.10;;;0.80;;
33022;SDS011;19390;51.460;5.710;2023-06-04T11:48:50;2.60;;;0.80;;
33022;SDS011;19390;51.460;5.710;2023-06-04T11:51:17;2.78;;;1.20;;
33022;SDS011;19390;51.460;5.710;2023-06-04T11:53:44;2.30;;;0.82;;
33022;SDS011;19390;51.460;5.710;2023-06-04T11:56:09;0.85;;;0.80;;
33022;SDS011;19390;51.460;5.710;2023-06-04T11:58:36;5.78;;;1.13;;
33022;SDS011;19390;51.460;5.710;2023-06-04T12:01:03;1.33;;;0.60;;
33022;SDS011;19390;51.460;5.710;2023-06-04T12:03:36;1.77;;;1.00;;
33022;SDS011;19390;51.460;5.710;2023-06-04T12:06:18;3.00;;;0.98;;
33022;SDS011;19390;51.460;5.710;2023-06-04T12:11:24;5.35;;;1.25;;
33022;SDS011;19390;51.460;5.710;2023-06-04T12:14:00;4.53;;;0.85;;
33022;SDS011;19390;51.460;5.710;2023-06-04T12:16:28;3.90;;;0.95;;
33022;SDS011;19390;51.460;5.710;2023-06-04T12:19:10;2.35;;;0.70;;
33022;SDS011;19390;51.460;5.710;2023-06-04T12:21:37;4.13;;;0.80;;
33022;SDS011;19390;51.460;5.710;2023-06-04T12:24:10;1.20;;;0.90;;
33022;SDS011;19390;51.460;5.710;2023-06-04T12:26:37;1.25;;;0.60;;
33022;SDS011;19390;51.460;5.710;2023-06-04T12:29:09;3.45;;;0.60;;
33022;SDS011;19390;51.460;5.710;2023-06-04T12:31:37;2.58;;;0.90;;
33022;SDS011;19390;51.460;5.710;2023-06-04T12:34:06;2.85;;;1.00;;
33022;SDS011;19390;51.460;5.710;2023-06-04T12:36:32;2.95;;;0.95;;
33022;SDS011;19390;51.460;5.710;2023-06-04T12:39:01;2.30;;;1.10;;
33022;SDS011;19390;51.460;5.710;2023-06-04T12:41:28;0.93;;;0.80;;
33022;SDS011;19390;51.460;5.710;2023-06-04T12:43:54;1.65;;;0.90;;
33022;SDS011;19390;51.460;5.710;2023-06-04T12:46:21;4.00;;;0.70;;
33022;SDS011;19390;51.460;5.710;2023-06-04T12:48:47;0.85;;;0.52;;
33022;SDS011;19390;51.460;5.710;2023-06-04T12:51:14;1.63;;;1.05;;
33022;SDS011;19390;51.460;5.710;2023-06-04T12:53:40;1.50;;;0.85;;
33022;SDS011;19390;51.460;5.710;2023-06-04T12:56:06;1.35;;;0.80;;
33022;SDS011;19390;51.460;5.710;2023-06-04T12:58:33;1.15;;;0.80;;
33022;SDS011;19390;51.460;5.710;2023-06-04T13:00:59;1.40;;;1.08;;
33022;SDS011;19390;51.460;5.710;2023-06-04T13:03:25;1.17;;;0.70;;
33022;SDS011;19390;51.460;5.710;2023-06-04T13:05:51;2.75;;;1.00;;
33022;SDS011;19390;51.460;5.710;2023-06-04T13:08:18;2.72;;;0.98;;
33022;SDS011;19390;51.460;5.710;2023-06-04T13:10:47;3.78;;;1.00;;
33022;SDS011;19390;51.460;5.710;2023-06-04T13:13:13;4.60;;;1.23;;
33022;SDS011;19390;51.460;5.710;2023-06-04T13:15:41;3.75;;;1.25;;
33022;SDS011;19390;51.460;5.710;2023-06-04T13:18:07;2.53;;;1.02;;
33022;SDS011;19390;51.460;5.710;2023-06-04T13:20:33;1.27;;;0.80;;
33022;SDS011;19390;51.460;5.710;2023-06-04T13:23:00;5.30;;;0.98;;
33022;SDS011;19390;51.460;5.710;2023-06-04T13:25:26;2.78;;;1.10;;
33022;SDS011;19390;51.460;5.710;2023-06-04T13:27:53;1.83;;;1.00;;
33022;SDS011;19390;51.460;5.710;2023-06-04T13:30:19;1.65;;;0.93;;
33022;SDS011;19390;51.460;5.710;2023-06-04T13:32:46;5.10;;;1.13;;
33022;SDS011;19390;51.460;5.710;2023-06-04T13:35:11;2.03;;;1.10;;
33022;SDS011;19390;51.460;5.710;2023-06-04T13:37:37;5.65;;;1.27;;
33022;SDS011;19390;51.460;5.710;2023-06-04T13:40:03;2.58;;;0.80;;
33022;SDS011;19390;51.460;5.710;2023-06-04T13:42:29;2.20;;;1.00;;
33022;SDS011;19390;51.460;5.710;2023-06-04T13:44:55;2.35;;;1.17;;
33022;SDS011;19390;51.460;5.710;2023-06-04T13:47:20;3.50;;;0.82;;
33022;SDS011;19390;51.460;5.710;2023-06-04T13:49:46;2.03;;;1.10;;
33022;SDS011;19390;51.460;5.710;2023-06-04T13:52:12;1.13;;;0.90;;
33022;SDS011;19390;51.460;5.710;2023-06-04T13:54:38;2.33;;;1.00;;
33022;SDS011;19390;51.460;5.710;2023-06-04T13:57:04;1.42;;;0.80;;
33022;SDS011;19390;51.460;5.710;2023-06-04T13:59:31;4.10;;;1.00;;
33022;SDS011;19390;51.460;5.710;2023-06-04T14:01:59;1.52;;;1.10;;
33022;SDS011;19390;51.460;5.710;2023-06-04T14:04:25;1.58;;;1.33;;
33022;SDS011;19390;51.460;5.710;2023-06-04T14:06:50;2.83;;;1.10;;
33022;SDS011;19390;51.460;5.710;2023-06-04T14:09:16;1.65;;;1.02;;
33022;SDS011;19390;51.460;5.710;2023-06-04T14:11:42;3.47;;;1.20;;
33022;SDS011;19390;51.460;5.710;2023-06-04T14:14:07;4.55;;;1.27;;
33022;SDS011;19390;51.460;5.710;2023-06-04T14:16:35;5.13;;;1.40;;
33022;SDS011;19390;51.460;5.710;2023-06-04T14:19:00;8.23;;;1.20;;
33022;SDS011;19390;51.460;5.710;2023-06-04T14:21:26;5.63;;;1.40;;
33022;SDS011;19390;51.460;5.710;2023-06-04T14:23:53;10.77;;;1.40;;
33022;SDS011;19390;51.460;5.710;2023-06-04T14:26:18;3.42;;;1.02;;
33022;SDS011;19390;51.460;5.710;2023-06-04T14:28:45;4.28;;;1.20;;
33022;SDS011;19390;51.460;5.710;2023-06-04T14:31:11;1.88;;;1.30;;
33022;SDS011;19390;51.460;5.710;2023-06-04T14:33:37;2.70;;;0.88;;
33022;SDS011;19390;51.460;5.710;2023-06-04T14:36:03;2.70;;;1.10;;
33022;SDS011;19390;51.460;5.710;2023-06-04T14:38:29;5.22;;;1.17;;
33022;SDS011;19390;51.460;5.710;2023-06-04T14:40:54;5.03;;;1.25;;
33022;SDS011;19390;51.460;5.710;2023-06-04T14:43:21;1.98;;;1.05;;
33022;SDS011;19390;51.460;5.710;2023-06-04T14:45:47;10.20;;;1.67;;
33022;SDS011;19390;51.460;5.710;2023-06-04T14:48:13;4.88;;;1.08;;
33022;SDS011;19390;51.460;5.710;2023-06-04T14:50:39;3.50;;;1.10;;
33022;SDS011;19390;51.460;5.710;2023-06-04T14:53:05;2.47;;;1.20;;
33022;SDS011;19390;51.460;5.710;2023-06-04T14:55:33;3.28;;;1.20;;
33022;SDS011;19390;51.460;5.710;2023-06-04T14:58:00;3.53;;;1.10;;
33022;SDS011;19390;51.460;5.710;2023-06-04T15:00:25;4.38;;;1.00;;
33022;SDS011;19390;51.460;5.710;2023-06-04T15:02:51;3.53;;;1.05;;
33022;SDS011;19390;51.460;5.710;2023-06-04T15:05:16;2.38;;;1.20;;